Salina, Kansas
Current Conditions -  °F | °C
As of 9:53 PM on Tuesday 21 Oct 2014 (Local Time) from KSLN Reporting Station
Clear Clear  
Wind Chill: 66°   Ceiling: Unl
Heat Index: 66°   Visibility: 10mi
Dew Point: 57°   Wind: 10mph
Humidity: 73%   Direction: 150°SSE
Pressure: 30.02"   Gusts: NA
Location:  38.84°N, 97.61°W
Report Text: KSLN 220253Z 15009KT 10SM CLR 19/14 A3002 RMK AO2 SLP160 T01890139 51011
Loading
Personal Weather Stations






























Interactive Weather Map
Tropical Storm Tracking
New forecast layout! Learn more

10-Day Weather Forecast

Advertisements
Track Severe Weather on mobile